createdAt,value
2018-03-23T00:00:44.436Z,6.79
2018-03-23T00:01:44.452Z,6.78
2018-03-23T00:02:44.468Z,6.81
2018-03-23T00:03:44.484Z,6.87
2018-03-23T00:04:44.502Z,6.85
2018-03-23T00:05:44.520Z,6.89
2018-03-23T00:06:44.535Z,6.95
2018-03-23T00:07:44.551Z,6.75
2018-03-23T00:08:44.568Z,6.74
2018-03-23T00:09:44.586Z,6.77
2018-03-23T00:10:44.601Z,6.81
2018-03-23T00:11:44.618Z,6.78
2018-03-23T00:12:44.634Z,6.74
2018-03-23T00:13:44.652Z,6.87
2018-03-23T00:14:44.667Z,6.81
2018-03-23T00:15:44.690Z,6.85
2018-03-23T00:16:44.712Z,6.96
2018-03-23T00:17:44.718Z,6.92
2018-03-23T00:18:44.737Z,6.81
2018-03-23T00:19:44.751Z,6.88
2018-03-23T00:20:44.767Z,6.88
2018-03-23T00:21:44.785Z,6.88
2018-03-23T00:22:44.801Z,6.88
2018-03-23T00:23:44.818Z,6.85
2018-03-23T00:24:44.834Z,6.89
2018-03-23T00:25:44.851Z,6.82
2018-03-23T00:26:44.867Z,6.74
2018-03-23T00:27:44.883Z,6.82
2018-03-23T00:28:44.900Z,6.77
2018-03-23T00:29:44.917Z,6.78
2018-03-23T00:30:44.933Z,6.85
2018-03-23T00:31:44.950Z,6.70
2018-03-23T00:32:44.967Z,6.74
2018-03-23T00:33:44.984Z,6.75
2018-03-23T00:34:45.000Z,6.69
2018-03-23T00:35:45.017Z,6.74
2018-03-23T00:36:45.034Z,6.72
2018-03-23T00:37:45.051Z,6.70
2018-03-23T00:38:45.068Z,6.70
2018-03-23T00:39:45.084Z,6.62
2018-03-23T00:40:45.101Z,6.67
2018-03-23T00:41:45.118Z,6.74
2018-03-23T00:42:45.134Z,6.69
2018-03-23T00:43:45.152Z,6.66
2018-03-23T00:44:45.167Z,6.64
2018-03-23T00:45:45.184Z,6.64
2018-03-23T00:46:45.201Z,6.56
2018-03-23T00:47:45.218Z,6.56
2018-03-23T00:48:45.238Z,6.57
2018-03-23T00:49:45.251Z,6.59
2018-03-23T00:50:45.268Z,6.63
2018-03-23T00:51:45.285Z,6.56
2018-03-23T00:52:45.301Z,6.52
2018-03-23T00:53:45.318Z,6.57
2018-03-23T00:54:45.334Z,6.59
2018-03-23T00:55:45.354Z,6.66
2018-03-23T00:56:45.369Z,6.60
2018-03-23T00:57:45.385Z,6.56
2018-03-23T00:58:45.401Z,6.60
2018-03-23T00:59:45.418Z,6.59
2018-03-23T01:00:45.436Z,6.57
2018-03-23T01:01:45.452Z,6.59
2018-03-23T01:02:45.469Z,6.52
2018-03-23T01:03:45.485Z,6.60
2018-03-23T01:04:45.502Z,6.59
2018-03-23T01:05:45.520Z,6.60
2018-03-23T01:06:45.536Z,6.56
2018-03-23T01:07:45.552Z,6.60
2018-03-23T01:08:45.571Z,6.57
2018-03-23T01:09:45.589Z,6.60
2018-03-23T01:10:45.603Z,6.62
2018-03-23T01:11:45.620Z,6.57
2018-03-23T01:12:45.637Z,6.62
2018-03-23T01:13:45.654Z,6.56
2018-03-23T01:14:45.670Z,6.56
2018-03-23T01:15:45.687Z,6.62
2018-03-23T01:16:45.708Z,6.60
2018-03-23T01:17:45.721Z,6.60
2018-03-23T01:18:45.737Z,6.57
2018-03-23T01:19:45.755Z,6.66
2018-03-23T01:20:45.784Z,6.59
2018-03-23T01:21:45.796Z,6.57
2018-03-23T01:22:45.806Z,6.62
2018-03-23T01:23:45.823Z,6.64
2018-03-23T01:24:45.841Z,6.63
2018-03-23T01:25:45.857Z,6.56
2018-03-23T01:26:45.873Z,6.57
2018-03-23T01:27:45.891Z,6.56
2018-03-23T01:28:45.909Z,6.60
2018-03-23T01:29:45.925Z,6.60
2018-03-23T01:30:45.942Z,6.60
2018-03-23T01:31:45.959Z,6.60
2018-03-23T01:32:45.980Z,6.60
2018-03-23T01:33:45.994Z,6.66
2018-03-23T01:34:46.010Z,6.64
2018-03-23T01:35:46.027Z,6.62
2018-03-23T01:36:46.043Z,6.64
2018-03-23T01:37:46.063Z,6.56
2018-03-23T01:38:46.078Z,6.59
2018-03-23T01:39:46.095Z,6.60
2018-03-23T01:40:46.112Z,6.64
2018-03-23T01:41:46.129Z,6.64
2018-03-23T01:42:46.146Z,6.60
2018-03-23T01:43:46.162Z,6.59
2018-03-23T01:44:46.180Z,6.60
2018-03-23T01:45:46.197Z,6.56
2018-03-23T01:46:46.213Z,6.57
2018-03-23T01:47:46.230Z,6.51
2018-03-23T01:48:46.248Z,6.57
2018-03-23T01:49:46.265Z,6.57
2018-03-23T01:50:46.281Z,6.63
2018-03-23T01:51:46.298Z,6.60
2018-03-23T01:52:46.315Z,6.52
2018-03-23T01:53:46.332Z,6.59
2018-03-23T01:54:46.349Z,6.56
2018-03-23T01:55:46.366Z,6.59
2018-03-23T01:56:46.383Z,6.56
2018-03-23T01:57:46.399Z,6.64
2018-03-23T01:58:46.416Z,6.66
2018-03-23T01:59:46.433Z,6.63
2018-03-23T02:00:46.450Z,6.56
2018-03-23T02:01:46.467Z,6.59
2018-03-23T02:02:46.484Z,6.60
2018-03-23T02:03:46.500Z,6.60
2018-03-23T02:04:46.517Z,6.59
2018-03-23T02:05:46.534Z,6.63
2018-03-23T02:06:46.549Z,6.66
2018-03-23T02:07:46.567Z,6.59
2018-03-23T02:08:46.585Z,6.66
2018-03-23T02:09:46.601Z,6.54
2018-03-23T02:10:46.624Z,6.59
2018-03-23T02:11:46.688Z,6.59
2018-03-23T02:12:46.652Z,6.56
2018-03-23T02:13:46.668Z,6.62
2018-03-23T02:14:46.683Z,6.64
2018-03-23T02:15:46.700Z,6.63
2018-03-23T02:16:46.718Z,6.57
2018-03-23T02:17:46.734Z,6.63
2018-03-23T02:18:46.751Z,6.57
2018-03-23T02:19:46.768Z,6.54
2018-03-23T02:20:46.784Z,6.54
2018-03-23T02:21:46.801Z,6.46
2018-03-23T02:22:46.817Z,6.54
2018-03-23T02:23:46.834Z,6.41
2018-03-23T02:24:46.951Z,6.49
2018-03-23T02:25:46.873Z,6.48
2018-03-23T02:26:46.884Z,6.46
2018-03-23T02:27:46.901Z,6.49
2018-03-23T02:28:46.916Z,6.51
2018-03-23T02:29:46.941Z,6.45
2018-03-23T02:30:46.951Z,6.48
2018-03-23T02:31:46.969Z,6.45
2018-03-23T02:32:46.986Z,6.45
2018-03-23T02:33:47.002Z,6.48
2018-03-23T02:34:47.016Z,6.42
2018-03-23T02:35:47.033Z,6.44
2018-03-23T02:36:47.051Z,6.33
2018-03-23T02:37:47.068Z,6.42
2018-03-23T02:38:47.083Z,6.26
2018-03-23T02:39:47.102Z,6.36
2018-03-23T02:40:47.119Z,6.35
2018-03-23T02:41:47.133Z,6.28
2018-03-23T02:42:47.148Z,6.27
2018-03-23T02:43:47.165Z,6.28
2018-03-23T02:44:47.183Z,6.31
2018-03-23T02:45:47.201Z,6.35
2018-03-23T02:46:47.214Z,6.35
2018-03-23T02:47:47.232Z,6.30
2018-03-23T02:48:47.249Z,6.22
2018-03-23T02:49:47.265Z,6.30
2018-03-23T02:50:47.281Z,6.27
2018-03-23T02:51:47.297Z,6.28
2018-03-23T02:52:47.313Z,6.33
2018-03-23T02:53:47.331Z,6.28
2018-03-23T02:54:47.344Z,6.31
2018-03-23T02:55:47.362Z,6.24
2018-03-23T02:56:47.379Z,6.22
2018-03-23T02:57:47.395Z,6.28
2018-03-23T02:58:47.412Z,6.20
2018-03-23T02:59:47.426Z,6.20
2018-03-23T03:00:47.443Z,6.22
2018-03-23T03:01:47.460Z,6.28
2018-03-23T03:02:47.475Z,6.33
2018-03-23T03:03:47.492Z,6.30
2018-03-23T03:04:47.510Z,6.30
2018-03-23T03:05:47.526Z,6.30
2018-03-23T03:06:47.541Z,6.27
2018-03-23T03:07:47.556Z,6.19
2018-03-23T03:08:47.574Z,6.28
2018-03-23T03:09:47.591Z,6.17
2018-03-23T03:10:47.605Z,6.24
2018-03-23T03:11:47.623Z,6.19
2018-03-23T03:12:47.642Z,6.20
2018-03-23T03:13:47.656Z,6.24
2018-03-23T03:14:47.673Z,6.24
2018-03-23T03:15:47.689Z,6.16
2018-03-23T03:16:47.705Z,6.22
2018-03-23T03:17:47.722Z,6.22
2018-03-23T03:18:47.737Z,6.20
2018-03-23T03:19:47.755Z,6.28
2018-03-23T03:20:47.770Z,6.24
2018-03-23T03:21:47.786Z,6.19
2018-03-23T03:22:47.805Z,6.14
2018-03-23T03:23:47.818Z,6.08
2018-03-23T03:24:47.835Z,6.12
2018-03-23T03:25:47.852Z,6.09
2018-03-23T03:26:47.868Z,6.12
2018-03-23T03:27:47.884Z,6.07
2018-03-23T03:28:47.901Z,6.07
2018-03-23T03:29:47.917Z,6.07
2018-03-23T03:30:47.935Z,6.08
2018-03-23T03:31:47.950Z,6.11
2018-03-23T03:32:47.967Z,6.09
2018-03-23T03:33:47.982Z,6.05
2018-03-23T03:34:48.002Z,6.09
2018-03-23T03:35:48.014Z,6.08
2018-03-23T03:36:48.032Z,6.04
2018-03-23T03:37:48.049Z,6.01
2018-03-23T03:38:48.064Z,6.02
2018-03-23T03:39:48.081Z,6.09
2018-03-23T03:40:48.097Z,6.09
2018-03-23T03:41:48.114Z,6.07
2018-03-23T03:42:48.130Z,6.02
2018-03-23T03:43:48.147Z,6.05
2018-03-23T03:44:48.163Z,6.11
2018-03-23T03:45:48.180Z,6.07
2018-03-23T03:46:48.197Z,6.07
2018-03-23T03:47:48.212Z,6.12
2018-03-23T03:48:48.229Z,6.11
2018-03-23T03:49:48.246Z,6.11
2018-03-23T03:50:48.261Z,6.05
2018-03-23T03:51:48.278Z,6.11
2018-03-23T03:52:48.295Z,6.12
2018-03-23T03:53:48.311Z,6.12
2018-03-23T03:54:48.327Z,6.11
2018-03-23T03:55:48.345Z,6.12
2018-03-23T03:56:48.362Z,6.12
2018-03-23T03:57:48.382Z,6.04
2018-03-23T03:58:48.393Z,6.11
2018-03-23T03:59:48.410Z,6.05
2018-03-23T04:00:48.427Z,6.12
2018-03-23T04:01:48.444Z,6.08
2018-03-23T04:02:48.465Z,6.04
2018-03-23T04:03:48.477Z,6.09
2018-03-23T04:04:48.493Z,6.08
2018-03-23T04:05:48.510Z,6.08
2018-03-23T04:06:48.526Z,6.08
2018-03-23T04:07:48.543Z,6.11
2018-03-23T04:08:48.560Z,6.08
2018-03-23T04:09:48.576Z,6.11
2018-03-23T04:10:48.592Z,6.07
2018-03-23T04:11:48.609Z,6.04
2018-03-23T04:12:48.626Z,6.09
2018-03-23T04:13:48.643Z,6.09
2018-03-23T04:14:48.658Z,6.09
2018-03-23T04:15:48.673Z,6.04
2018-03-23T04:16:48.692Z,6.05
2018-03-23T04:17:48.708Z,6.07
2018-03-23T04:18:48.723Z,6.12
2018-03-23T04:19:48.741Z,6.12
2018-03-23T04:20:48.758Z,6.05
2018-03-23T04:21:48.774Z,6.07
2018-03-23T04:22:48.791Z,6.16
2018-03-23T04:23:48.807Z,6.08
2018-03-23T04:24:48.827Z,6.11
2018-03-23T04:25:48.839Z,6.08
2018-03-23T04:26:48.856Z,6.17
2018-03-23T04:27:48.889Z,6.09
2018-03-23T04:28:48.890Z,6.14
2018-03-23T04:29:48.906Z,6.20
2018-03-23T04:30:48.922Z,6.19
2018-03-23T04:31:48.939Z,6.19
2018-03-23T04:32:48.956Z,6.20
2018-03-23T04:33:48.976Z,6.26
2018-03-23T04:34:48.989Z,6.20
2018-03-23T04:35:49.006Z,6.24
2018-03-23T04:36:49.021Z,6.17
2018-03-23T04:37:49.039Z,6.22
2018-03-23T04:38:49.056Z,6.19
2018-03-23T04:39:49.073Z,6.20
2018-03-23T04:40:49.089Z,6.27
2018-03-23T04:41:49.107Z,6.26
2018-03-23T04:42:49.122Z,6.19
2018-03-23T04:43:49.138Z,6.17
2018-03-23T04:44:49.158Z,6.20
2018-03-23T04:45:49.173Z,6.26
2018-03-23T04:46:49.189Z,6.20
2018-03-23T04:47:49.206Z,6.24
2018-03-23T04:48:49.223Z,6.24
2018-03-23T04:49:49.239Z,6.26
2018-03-23T04:50:49.259Z,6.27
2018-03-23T04:51:49.273Z,6.27
2018-03-23T04:52:49.292Z,6.20
2018-03-23T04:53:49.312Z,6.20
2018-03-23T04:54:49.324Z,6.26
2018-03-23T04:55:49.339Z,6.20
2018-03-23T04:56:49.357Z,6.26
2018-03-23T04:57:49.375Z,6.20
2018-03-23T04:58:49.391Z,6.24
2018-03-23T04:59:49.408Z,6.26
2018-03-23T05:00:49.423Z,6.27
2018-03-23T05:01:49.441Z,6.20
2018-03-23T05:02:49.457Z,6.24
2018-03-23T05:03:49.475Z,6.22
2018-03-23T05:04:49.492Z,6.24
2018-03-23T05:05:49.508Z,6.26
2018-03-23T05:06:49.525Z,6.24
2018-03-23T05:07:49.542Z,6.14
2018-03-23T05:08:49.559Z,6.24
2018-03-23T05:09:49.576Z,6.24
2018-03-23T05:10:49.591Z,6.22
2018-03-23T05:11:49.608Z,6.24
2018-03-23T05:12:49.626Z,6.19
2018-03-23T05:13:49.642Z,6.24
2018-03-23T05:14:49.659Z,6.20
2018-03-23T05:15:49.675Z,6.17
2018-03-23T05:16:49.694Z,6.26
2018-03-23T05:17:49.710Z,6.28
2018-03-23T05:18:49.726Z,6.26
2018-03-23T05:19:49.744Z,6.22
2018-03-23T05:20:49.764Z,6.17
2018-03-23T05:21:49.778Z,6.16
2018-03-23T05:22:49.793Z,6.20
2018-03-23T05:23:49.810Z,6.22
2018-03-23T05:24:49.869Z,6.16
2018-03-23T05:25:49.844Z,6.26
2018-03-23T05:26:49.859Z,6.17
2018-03-23T05:27:49.877Z,6.22
2018-03-23T05:28:49.895Z,6.19
2018-03-23T05:29:49.912Z,6.26
2018-03-23T05:30:49.928Z,6.27
2018-03-23T05:31:49.944Z,6.26
2018-03-23T05:32:49.962Z,6.20
2018-03-23T05:33:49.978Z,6.27
2018-03-23T05:34:49.994Z,6.17
2018-03-23T05:35:50.011Z,6.22
2018-03-23T05:36:50.029Z,6.26
2018-03-23T05:37:50.045Z,6.20
2018-03-23T05:38:50.062Z,6.16
2018-03-23T05:39:50.078Z,6.16
2018-03-23T05:40:50.096Z,6.17
2018-03-23T05:41:50.119Z,6.16
2018-03-23T05:42:50.129Z,6.22
2018-03-23T05:43:50.148Z,6.30
2018-03-23T05:44:50.162Z,6.27
2018-03-23T05:45:50.180Z,6.24
2018-03-23T05:46:50.196Z,6.19
2018-03-23T05:47:50.215Z,6.20
2018-03-23T05:48:50.230Z,6.20
2018-03-23T05:49:50.246Z,6.28
2018-03-23T05:50:50.263Z,6.24
2018-03-23T05:51:50.304Z,6.27
2018-03-23T05:52:50.297Z,6.27
2018-03-23T05:53:50.314Z,6.27
2018-03-23T05:54:50.333Z,6.31
2018-03-23T05:55:50.346Z,6.31
2018-03-23T05:56:50.364Z,6.28
2018-03-23T05:57:50.381Z,6.30
2018-03-23T05:58:50.398Z,6.31
2018-03-23T05:59:50.416Z,6.30
2018-03-23T06:00:50.431Z,6.27
2018-03-23T06:01:50.449Z,6.27
2018-03-23T06:02:50.465Z,6.24
2018-03-23T06:03:50.482Z,6.27
2018-03-23T06:04:50.505Z,6.28
2018-03-23T06:05:50.515Z,6.30
2018-03-23T06:06:50.533Z,6.42
2018-03-23T06:07:50.549Z,6.36
2018-03-23T06:08:50.569Z,6.33
2018-03-23T06:09:50.584Z,6.33
2018-03-23T06:10:50.601Z,6.35
2018-03-23T06:11:50.616Z,6.30
2018-03-23T06:12:50.634Z,6.30
2018-03-23T06:13:50.653Z,6.33
2018-03-23T06:14:50.668Z,6.28
2018-03-23T06:15:50.686Z,6.30
2018-03-23T06:16:50.703Z,6.31
2018-03-23T06:17:50.719Z,6.38
2018-03-23T06:18:50.734Z,6.36
2018-03-23T06:19:50.752Z,6.42
2018-03-23T06:20:50.769Z,6.39
2018-03-23T06:21:50.785Z,6.48
2018-03-23T06:22:50.840Z,6.44
2018-03-23T06:23:50.821Z,6.41
2018-03-23T06:24:50.836Z,6.45
2018-03-23T06:25:50.854Z,6.42
2018-03-23T06:26:50.870Z,6.42
2018-03-23T06:27:50.887Z,6.48
2018-03-23T06:28:50.904Z,6.48
2018-03-23T06:29:50.921Z,6.46
2018-03-23T06:30:50.938Z,6.44
2018-03-23T06:31:50.954Z,6.42
2018-03-23T06:32:50.972Z,6.41
2018-03-23T06:33:50.988Z,6.54
2018-03-23T06:34:51.005Z,6.54
2018-03-23T06:35:51.022Z,6.56
2018-03-23T06:36:51.039Z,6.54
2018-03-23T06:37:51.056Z,6.48
2018-03-23T06:38:51.072Z,6.57
2018-03-23T06:39:51.088Z,6.56
2018-03-23T06:40:51.106Z,6.60
2018-03-23T06:41:51.123Z,6.60
2018-03-23T06:42:51.139Z,6.57
2018-03-23T06:43:51.157Z,6.49
2018-03-23T06:44:51.174Z,6.63
2018-03-23T06:45:51.191Z,6.60
2018-03-23T06:46:51.206Z,6.63
2018-03-23T06:47:51.223Z,6.74
2018-03-23T06:48:51.242Z,6.62
2018-03-23T06:49:51.258Z,6.67
2018-03-23T06:50:51.275Z,6.67
2018-03-23T06:51:51.292Z,6.66
2018-03-23T06:52:51.309Z,6.66
2018-03-23T06:53:51.326Z,6.77
2018-03-23T06:54:51.342Z,6.74
2018-03-23T06:55:51.360Z,6.64
2018-03-23T06:56:51.376Z,6.70
2018-03-23T06:57:51.394Z,6.74
2018-03-23T06:58:51.611Z,6.70
2018-03-23T06:59:51.427Z,6.63
2018-03-23T07:00:51.445Z,6.62
2018-03-23T07:01:51.499Z,6.60
2018-03-23T07:02:51.477Z,6.67
2018-03-23T07:03:51.496Z,6.64
2018-03-23T07:04:51.513Z,6.63
2018-03-23T07:05:51.529Z,6.74
2018-03-23T07:06:51.546Z,6.66
2018-03-23T07:07:51.563Z,6.74
2018-03-23T07:08:51.579Z,6.72
2018-03-23T07:09:51.598Z,6.74
2018-03-23T07:10:51.614Z,6.74
2018-03-23T07:11:51.631Z,6.75
2018-03-23T07:12:51.648Z,6.70
2018-03-23T07:13:51.665Z,6.77
2018-03-23T07:14:51.682Z,6.75
2018-03-23T07:15:51.700Z,6.79
2018-03-23T07:16:51.717Z,6.72
2018-03-23T07:17:51.734Z,6.72
2018-03-23T07:18:51.750Z,6.77
2018-03-23T07:19:51.768Z,6.78
2018-03-23T07:20:51.785Z,6.85
2018-03-23T07:21:51.801Z,6.75
2018-03-23T07:22:51.818Z,6.78
2018-03-23T07:23:51.836Z,6.82
2018-03-23T07:24:51.853Z,6.74
2018-03-23T07:25:51.875Z,6.72
2018-03-23T07:26:51.887Z,6.78
2018-03-23T07:27:51.904Z,6.81
2018-03-23T07:28:51.921Z,6.84
2018-03-23T07:29:51.938Z,6.77
2018-03-23T07:30:51.955Z,6.77
2018-03-23T07:31:51.971Z,6.81
2018-03-23T07:32:51.989Z,6.88
2018-03-23T07:33:52.007Z,6.87
2018-03-23T07:34:52.023Z,6.88
2018-03-23T07:35:52.041Z,6.87
2018-03-23T07:36:52.057Z,6.96
2018-03-23T07:37:52.074Z,6.96
2018-03-23T07:38:52.090Z,6.88
2018-03-23T07:39:52.106Z,6.97
2018-03-23T07:40:52.125Z,6.97
2018-03-23T07:41:52.143Z,6.99
2018-03-23T07:42:52.159Z,7.02
2018-03-23T07:43:52.181Z,7.00
2018-03-23T07:44:52.195Z,6.96
2018-03-23T07:45:52.211Z,6.99
2018-03-23T07:46:52.227Z,7.02
2018-03-23T07:47:52.246Z,7.11
2018-03-23T07:48:52.262Z,7.10
2018-03-23T07:49:52.282Z,7.06
2018-03-23T07:50:52.295Z,7.05
2018-03-23T07:51:52.313Z,7.02
2018-03-23T07:52:52.332Z,6.95
2018-03-23T07:53:52.348Z,7.00
2018-03-23T07:54:52.363Z,7.13
2018-03-23T07:55:52.381Z,6.93
2018-03-23T07:56:52.398Z,7.00
2018-03-23T07:57:52.415Z,7.05
2018-03-23T07:58:52.432Z,7.03
2018-03-23T07:59:52.459Z,7.11
2018-03-23T08:00:52.467Z,7.10
2018-03-23T08:01:52.483Z,7.18
2018-03-23T08:02:52.500Z,7.11
2018-03-23T08:03:52.518Z,7.20
2018-03-23T08:04:52.535Z,7.23
2018-03-23T08:05:52.555Z,7.14
2018-03-23T08:06:52.577Z,7.15
2018-03-23T08:07:52.586Z,7.21
2018-03-23T08:08:52.606Z,7.17
2018-03-23T08:09:52.622Z,7.24
2018-03-23T08:10:52.638Z,7.21
2018-03-23T08:11:52.656Z,7.18
2018-03-23T08:12:52.673Z,7.17
2018-03-23T08:13:52.690Z,7.17
2018-03-23T08:14:52.707Z,7.20
2018-03-23T08:15:52.724Z,7.20
2018-03-23T08:16:52.745Z,7.32
2018-03-23T08:17:52.763Z,7.24
2018-03-23T08:18:52.775Z,7.38
2018-03-23T08:19:52.795Z,7.31
2018-03-23T08:20:52.810Z,7.33
2018-03-23T08:21:52.828Z,7.31
2018-03-23T08:22:52.844Z,7.32
2018-03-23T08:23:52.862Z,7.32
2018-03-23T08:24:52.879Z,7.38
2018-03-23T08:25:52.897Z,7.32
2018-03-23T08:26:52.913Z,7.38
2018-03-23T08:27:52.933Z,7.40
2018-03-23T08:28:52.948Z,7.42
2018-03-23T08:29:52.969Z,7.42
2018-03-23T08:30:52.982Z,7.33
2018-03-23T08:31:52.999Z,7.40
2018-03-23T08:32:53.022Z,7.43
2018-03-23T08:33:53.035Z,7.35
2018-03-23T08:34:53.052Z,7.43
2018-03-23T08:35:53.069Z,7.42
2018-03-23T08:36:53.140Z,7.39
2018-03-23T08:37:53.105Z,7.36
2018-03-23T08:38:53.121Z,7.48
2018-03-23T08:39:53.138Z,7.35
2018-03-23T08:40:53.156Z,7.42
2018-03-23T08:41:53.174Z,7.38
2018-03-23T08:42:53.191Z,7.40
2018-03-23T08:43:53.226Z,7.48
2018-03-23T08:44:53.246Z,7.47
2018-03-23T08:45:53.247Z,7.53
2018-03-23T08:46:53.261Z,7.51
2018-03-23T08:47:53.279Z,7.47
2018-03-23T08:48:53.296Z,7.43
2018-03-23T08:49:53.314Z,7.39
2018-03-23T08:50:53.330Z,7.50
2018-03-23T08:51:53.349Z,7.48
2018-03-23T08:52:53.366Z,7.53
2018-03-23T08:53:53.383Z,7.63
2018-03-23T08:54:53.400Z,7.76
2018-03-23T08:55:53.418Z,7.83
2018-03-23T08:56:53.443Z,7.82
2018-03-23T08:57:53.453Z,7.83
2018-03-23T08:58:53.470Z,7.73
2018-03-23T08:59:53.488Z,7.76
2018-03-23T09:00:53.507Z,7.63
2018-03-23T09:01:53.526Z,7.75
2018-03-23T09:02:53.541Z,7.67
2018-03-23T09:03:53.558Z,7.79
2018-03-23T09:04:53.576Z,7.79
2018-03-23T09:05:53.594Z,7.79
2018-03-23T09:06:53.610Z,7.83
2018-03-23T09:07:53.629Z,7.79
2018-03-23T09:08:53.646Z,7.76
2018-03-23T09:09:53.664Z,7.76
2018-03-23T09:10:53.682Z,7.79
2018-03-23T09:11:53.702Z,7.91
2018-03-23T09:12:53.745Z,7.80
2018-03-23T09:13:53.735Z,7.90
2018-03-23T09:14:53.752Z,7.98
2018-03-23T09:15:53.773Z,7.94
2018-03-23T09:16:53.789Z,7.93
2018-03-23T09:17:53.811Z,7.94
2018-03-23T09:18:53.824Z,7.90
2018-03-23T09:19:53.840Z,7.94
2018-03-23T09:20:53.859Z,7.94
2018-03-23T09:21:53.926Z,7.91
2018-03-23T09:22:53.896Z,7.95
2018-03-23T09:23:53.912Z,8.01
2018-03-23T09:24:53.930Z,7.93
2018-03-23T09:25:53.948Z,7.88
2018-03-23T09:26:53.977Z,8.00
2018-03-23T09:27:53.984Z,7.87
2018-03-23T09:28:54.001Z,7.98
2018-03-23T09:29:54.019Z,8.12
2018-03-23T09:30:54.045Z,8.19
2018-03-23T09:31:54.055Z,8.30
2018-03-23T09:32:54.073Z,8.36
2018-03-23T09:33:54.091Z,8.37
2018-03-23T09:34:54.108Z,8.38
2018-03-23T09:35:54.127Z,8.36
2018-03-23T09:36:54.144Z,8.38
2018-03-23T09:37:54.163Z,8.37
2018-03-23T09:38:54.182Z,8.53
2018-03-23T09:39:54.200Z,8.52
2018-03-23T09:40:54.217Z,8.52
2018-03-23T09:41:54.236Z,8.64
2018-03-23T09:42:54.253Z,8.71
2018-03-23T09:43:54.272Z,8.73
2018-03-23T09:44:54.290Z,8.70
2018-03-23T09:45:54.308Z,8.51
2018-03-23T09:46:54.327Z,8.53
2018-03-23T09:47:54.344Z,8.51
2018-03-23T09:48:54.363Z,8.51
2018-03-23T09:49:54.382Z,8.51
2018-03-23T09:50:54.400Z,8.58
2018-03-23T09:51:54.422Z,8.53
2018-03-23T09:52:54.438Z,8.52
2018-03-23T09:53:54.556Z,8.36
2018-03-23T09:54:54.474Z,8.37
2018-03-23T09:55:54.492Z,8.38
2018-03-23T09:56:54.511Z,8.33
2018-03-23T09:57:54.529Z,8.26
2018-03-23T09:58:54.547Z,8.36
2018-03-23T09:59:54.566Z,8.33
2018-03-23T10:00:54.583Z,8.31
2018-03-23T10:01:54.603Z,8.24
2018-03-23T10:02:54.621Z,8.28
2018-03-23T10:03:54.741Z,8.24
2018-03-23T10:04:54.658Z,8.34
2018-03-23T10:05:54.682Z,8.36
2018-03-23T10:06:54.695Z,8.33
2018-03-23T10:07:54.712Z,8.36
2018-03-23T10:08:54.733Z,8.27
2018-03-23T10:09:54.793Z,8.33
2018-03-23T10:10:54.768Z,8.20
2018-03-23T10:11:54.792Z,8.23
2018-03-23T10:12:54.805Z,8.16
2018-03-23T10:13:54.825Z,8.12
2018-03-23T10:14:54.840Z,8.15
2018-03-23T10:15:54.859Z,8.20
2018-03-23T10:16:54.878Z,8.23
2018-03-23T10:17:54.896Z,8.26
2018-03-23T10:18:54.917Z,8.36
2018-03-23T10:19:54.932Z,8.36
2018-03-23T10:20:55.003Z,8.42
2018-03-23T10:21:54.969Z,8.36
2018-03-23T10:22:54.986Z,8.49
2018-03-23T10:23:55.005Z,8.38
2018-03-23T10:24:55.024Z,8.45
2018-03-23T10:25:55.043Z,8.46
2018-03-23T10:26:55.059Z,8.52
2018-03-23T10:27:55.078Z,8.53
2018-03-23T10:28:55.100Z,8.74
2018-03-23T10:29:55.115Z,8.58
2018-03-23T10:30:55.133Z,8.52
2018-03-23T10:31:55.152Z,8.76
2018-03-23T10:32:55.170Z,8.70
2018-03-23T10:33:55.189Z,8.89
2018-03-23T10:34:55.207Z,9.02
2018-03-23T10:35:55.225Z,9.03
2018-03-23T10:36:55.243Z,9.21
2018-03-23T10:37:55.263Z,9.11
2018-03-23T10:38:55.280Z,9.11
2018-03-23T10:39:55.299Z,9.21
2018-03-23T10:40:55.318Z,9.26
2018-03-23T10:41:55.336Z,9.34
2018-03-23T10:42:55.355Z,9.04
2018-03-23T10:43:55.374Z,8.99
2018-03-23T10:44:55.394Z,9.13
2018-03-23T10:45:55.412Z,9.06
2018-03-23T10:46:55.430Z,9.16
2018-03-23T10:47:55.449Z,9.04
2018-03-23T10:48:55.468Z,9.02
2018-03-23T10:49:55.487Z,8.95
2018-03-23T10:50:55.506Z,8.94
2018-03-23T10:51:55.523Z,8.79
2018-03-23T10:52:55.547Z,8.82
2018-03-23T10:53:55.563Z,8.76
2018-03-23T10:54:55.582Z,8.87
2018-03-23T10:55:55.604Z,8.76
2018-03-23T10:56:55.630Z,9.02
2018-03-23T10:57:55.638Z,8.91
2018-03-23T10:58:55.656Z,8.97
2018-03-23T10:59:55.676Z,9.16
2018-03-23T11:00:55.693Z,9.31
2018-03-23T11:01:55.714Z,9.29
2018-03-23T11:02:55.731Z,9.41
2018-03-23T11:03:55.751Z,9.46
2018-03-23T11:04:55.769Z,9.61
2018-03-23T11:05:55.789Z,9.61
2018-03-23T11:06:55.807Z,9.56
2018-03-23T11:07:55.826Z,9.76
2018-03-23T11:08:55.845Z,9.55
2018-03-23T11:09:55.864Z,9.56
2018-03-23T11:10:55.883Z,9.51
2018-03-23T11:11:55.902Z,9.56
2018-03-23T11:12:55.921Z,9.77
2018-03-23T11:13:55.941Z,9.99
2018-03-23T11:14:55.960Z,10.07
2018-03-23T11:15:55.979Z,10.01
2018-03-23T11:16:55.999Z,9.98
2018-03-23T11:17:56.021Z,9.98
2018-03-23T11:18:56.041Z,9.95
2018-03-23T11:19:56.056Z,9.89
2018-03-23T11:20:56.077Z,9.54
2018-03-23T11:21:56.096Z,9.68
2018-03-23T11:22:56.115Z,9.82
2018-03-23T11:23:56.133Z,9.91
2018-03-23T11:24:56.154Z,9.97
2018-03-23T11:25:56.173Z,10.01
2018-03-23T11:26:56.191Z,10.10
2018-03-23T11:27:56.211Z,10.16
2018-03-23T11:28:56.231Z,10.26
2018-03-23T11:29:56.252Z,10.22
2018-03-23T11:30:56.273Z,10.13
2018-03-23T11:31:56.291Z,9.91
2018-03-23T11:32:56.309Z,9.91
2018-03-23T11:33:56.330Z,9.84
2018-03-23T11:34:56.349Z,9.89
2018-03-23T11:35:56.370Z,9.89
2018-03-23T11:36:56.395Z,9.69
2018-03-23T11:37:56.413Z,9.65
2018-03-23T11:38:56.428Z,9.43
2018-03-23T11:39:56.447Z,9.40
2018-03-23T11:40:56.467Z,9.40
2018-03-23T11:41:56.487Z,9.40
2018-03-23T11:42:56.507Z,9.34
2018-03-23T11:43:56.527Z,9.25
2018-03-23T11:44:56.548Z,9.22
2018-03-23T11:45:56.564Z,9.11
2018-03-23T11:46:56.583Z,9.22
2018-03-23T11:47:56.603Z,9.22
2018-03-23T11:48:56.622Z,9.28
2018-03-23T11:49:56.642Z,9.34
2018-03-23T11:50:56.660Z,9.31
2018-03-23T11:51:56.680Z,9.22
2018-03-23T11:52:56.703Z,9.14
2018-03-23T11:53:56.719Z,9.21
2018-03-23T11:54:56.736Z,9.18
2018-03-23T11:55:56.756Z,9.25
2018-03-23T11:56:56.775Z,9.10
2018-03-23T11:57:56.795Z,9.11
2018-03-23T11:58:56.814Z,9.22
2018-03-23T11:59:56.832Z,9.23
2018-03-23T12:00:56.853Z,9.22
2018-03-23T12:01:56.872Z,9.23
2018-03-23T12:02:56.890Z,9.26
2018-03-23T12:03:56.908Z,9.36
2018-03-23T12:04:56.927Z,9.34
2018-03-23T12:05:56.947Z,9.46
2018-03-23T12:06:56.965Z,9.47
2018-03-23T12:07:56.985Z,9.59
2018-03-23T12:08:57.004Z,9.61
2018-03-23T12:09:57.024Z,9.68
2018-03-23T12:10:57.041Z,9.61
2018-03-23T12:11:57.060Z,9.61
2018-03-23T12:12:57.080Z,9.77
2018-03-23T12:13:57.099Z,9.62
2018-03-23T12:14:57.117Z,9.61
2018-03-23T12:15:57.137Z,9.50
2018-03-23T12:16:57.156Z,9.72
2018-03-23T12:17:57.176Z,9.77
2018-03-23T12:18:57.194Z,9.66
2018-03-23T12:19:57.212Z,9.68
2018-03-23T12:20:57.232Z,9.66
2018-03-23T12:21:57.253Z,9.73
2018-03-23T12:22:57.273Z,9.69
2018-03-23T12:23:57.293Z,9.83
2018-03-23T12:24:57.310Z,9.87
2018-03-23T12:25:57.329Z,9.73
2018-03-23T12:26:57.349Z,9.77
2018-03-23T12:27:57.368Z,9.58
2018-03-23T12:28:57.387Z,9.46
2018-03-23T12:29:57.406Z,9.36
2018-03-23T12:30:57.426Z,9.37
2018-03-23T12:31:57.498Z,9.41
2018-03-23T12:32:57.465Z,9.32
2018-03-23T12:33:57.483Z,9.29
2018-03-23T12:34:57.531Z,9.47
2018-03-23T12:35:57.521Z,9.32
2018-03-23T12:36:57.544Z,9.21
2018-03-23T12:37:57.577Z,9.34
2018-03-23T12:38:57.579Z,9.34
2018-03-23T12:39:57.599Z,9.22
2018-03-23T12:40:57.618Z,9.37
2018-03-23T12:41:57.637Z,9.37
2018-03-23T12:42:57.660Z,9.32
2018-03-23T12:43:57.675Z,9.36
2018-03-23T12:44:57.695Z,9.29
2018-03-23T12:45:57.715Z,9.16
2018-03-23T12:46:57.731Z,9.22
2018-03-23T12:47:57.750Z,9.28
2018-03-23T12:48:57.772Z,9.36
2018-03-23T12:49:57.790Z,9.51
2018-03-23T12:50:57.845Z,9.29
2018-03-23T12:51:57.828Z,9.32
2018-03-23T12:52:57.846Z,9.29
2018-03-23T12:53:57.868Z,9.23
2018-03-23T12:54:57.884Z,9.25
2018-03-23T12:55:57.903Z,9.43
2018-03-23T12:56:57.923Z,9.48
2018-03-23T12:57:57.942Z,9.44
2018-03-23T12:58:57.961Z,9.58
2018-03-23T12:59:57.980Z,9.59
2018-03-23T13:00:58.001Z,9.61
2018-03-23T13:01:58.023Z,9.48
2018-03-23T13:02:58.037Z,9.54
2018-03-23T13:03:58.055Z,9.44
2018-03-23T13:04:58.074Z,9.47
2018-03-23T13:05:58.120Z,9.46
2018-03-23T13:06:58.113Z,9.41
2018-03-23T13:07:58.132Z,9.26
2018-03-23T13:08:58.152Z,9.21
2018-03-23T13:09:58.171Z,9.32
2018-03-23T13:10:58.189Z,9.31
2018-03-23T13:11:58.209Z,9.36
2018-03-23T13:12:58.239Z,9.40
2018-03-23T13:13:58.247Z,9.40
2018-03-23T13:14:58.265Z,9.34
2018-03-23T13:15:58.285Z,9.39
2018-03-23T13:16:58.303Z,9.41
2018-03-23T13:17:58.323Z,9.34
2018-03-23T13:18:58.342Z,9.31